createdAt,value
2022-08-03T00:01:45.686Z,59.79
2022-08-03T00:04:15.028Z,60.48
2022-08-03T00:06:43.207Z,61.03
2022-08-03T00:09:11.813Z,61.35
2022-08-03T00:11:40.009Z,61.28
2022-08-03T00:14:08.909Z,61.42
2022-08-03T00:16:37.086Z,61.00
2022-08-03T00:19:05.522Z,61.26
2022-08-03T00:21:35.063Z,62.15
2022-08-03T00:24:03.221Z,62.22
2022-08-03T00:26:31.834Z,62.53
2022-08-03T00:29:01.104Z,63.32
2022-08-03T00:31:51.657Z,64.02
2022-08-03T00:34:16.811Z,64.08
2022-08-03T00:36:56.586Z,63.39
2022-08-03T00:39:24.684Z,63.31
2022-08-03T00:41:52.881Z,64.17
2022-08-03T00:44:21.078Z,64.10
2022-08-03T00:46:49.308Z,63.37
2022-08-03T00:49:17.451Z,63.46
2022-08-03T00:51:45.812Z,63.95
2022-08-03T00:54:15.893Z,64.04
2022-08-03T00:57:00.316Z,63.89
2022-08-03T00:59:30.470Z,63.45
2022-08-03T01:01:58.711Z,63.19
2022-08-03T01:04:26.523Z,62.66
2022-08-03T01:07:02.432Z,62.92
2022-08-03T01:09:39.296Z,63.27
2022-08-03T01:12:15.030Z,63.31
2022-08-03T01:14:56.290Z,62.98
2022-08-03T01:17:30.584Z,62.90
2022-08-03T01:20:03.316Z,63.01
2022-08-03T01:23:01.845Z,63.12
2022-08-03T01:25:41.359Z,63.70
2022-08-03T01:28:30.177Z,63.49
2022-08-03T01:31:03.180Z,63.66
2022-08-03T01:33:37.559Z,64.15
2022-08-03T01:36:10.830Z,64.02
2022-08-03T01:38:44.399Z,64.30
2022-08-03T01:41:18.352Z,64.18
2022-08-03T01:44:27.947Z,64.19
2022-08-03T01:46:47.619Z,64.01
2022-08-03T01:49:18.887Z,64.11
2022-08-03T01:51:58.375Z,64.70
2022-08-03T01:54:36.181Z,64.46
2022-08-03T01:57:05.300Z,64.38
2022-08-03T01:59:36.555Z,63.63
2022-08-03T02:02:28.361Z,64.01
2022-08-03T02:04:57.627Z,63.31
2022-08-03T02:07:27.724Z,63.17
2022-08-03T02:09:57.550Z,63.38
2022-08-03T02:12:30.343Z,63.30
2022-08-03T02:15:00.315Z,63.40
2022-08-03T02:17:39.587Z,63.61
2022-08-03T02:20:12.158Z,64.25
2022-08-03T02:22:42.012Z,65.54
2022-08-03T02:25:11.771Z,66.63
2022-08-03T02:27:43.893Z,65.90
2022-08-03T02:30:14.410Z,65.40
2022-08-03T02:32:49.934Z,65.03
2022-08-03T02:35:22.658Z,64.59
2022-08-03T02:37:57.364Z,64.40
2022-08-03T02:40:28.914Z,64.42
2022-08-03T02:43:00.626Z,64.77
2022-08-03T02:45:30.509Z,64.20
2022-08-03T02:48:04.493Z,63.51
2022-08-03T02:50:34.495Z,63.65
2022-08-03T02:53:04.215Z,63.73
2022-08-03T02:55:35.918Z,63.70
2022-08-03T02:58:12.869Z,64.76
2022-08-03T03:00:42.479Z,65.92
2022-08-03T03:03:12.259Z,66.18
2022-08-03T03:05:55.754Z,66.37
2022-08-03T03:08:28.774Z,65.92
2022-08-03T03:10:59.185Z,65.40
2022-08-03T03:13:29.239Z,64.73
2022-08-03T03:16:01.008Z,65.28
2022-08-03T03:18:32.242Z,65.06
2022-08-03T03:21:01.712Z,65.43
2022-08-03T03:23:30.764Z,66.02
2022-08-03T03:26:02.373Z,66.58
2022-08-03T03:28:31.959Z,66.78
2022-08-03T03:31:00.770Z,66.35
2022-08-03T03:33:30.666Z,66.77
2022-08-03T03:35:59.960Z,67.05
2022-08-03T03:38:28.651Z,67.02
2022-08-03T03:40:56.824Z,67.32
2022-08-03T03:43:26.872Z,67.88
2022-08-03T03:45:56.477Z,68.44
2022-08-03T03:48:26.467Z,68.86
2022-08-03T03:50:57.448Z,69.57
2022-08-03T03:53:26.225Z,69.45
2022-08-03T03:56:01.953Z,69.11
2022-08-03T03:58:32.534Z,68.76
2022-08-03T04:01:01.114Z,68.79
2022-08-03T04:03:29.572Z,69.24
2022-08-03T04:06:17.073Z,69.73
2022-08-03T04:09:02.582Z,69.74
2022-08-03T04:11:35.847Z,69.01
2022-08-03T04:14:09.241Z,68.10
2022-08-03T04:16:43.976Z,67.61
2022-08-03T04:19:18.449Z,67.30
2022-08-03T04:21:52.853Z,67.06
2022-08-03T04:24:26.655Z,66.01
2022-08-03T04:26:57.244Z,65.14
2022-08-03T04:29:27.321Z,64.15
2022-08-03T04:31:56.818Z,63.64
2022-08-03T04:34:24.862Z,63.19
2022-08-03T04:36:59.495Z,62.80
2022-08-03T04:39:31.992Z,61.67
2022-08-03T04:42:08.277Z,61.63
2022-08-03T04:44:40.595Z,61.02
2022-08-03T04:47:09.102Z,60.32
2022-08-03T04:49:38.740Z,59.26
2022-08-03T04:52:10.218Z,58.10
2022-08-03T04:54:42.184Z,57.48
2022-08-03T04:57:11.415Z,56.91
2022-08-03T05:00:02.567Z,54.70
2022-08-03T05:02:32.093Z,54.43
2022-08-03T05:05:00.716Z,57.19
2022-08-03T05:07:35.445Z,58.39
2022-08-03T05:10:15.157Z,56.16
2022-08-03T05:12:45.297Z,54.15
2022-08-03T05:15:13.305Z,53.28
2022-08-03T05:17:41.628Z,52.62
2022-08-03T05:20:11.763Z,52.22
2022-08-03T05:22:41.104Z,50.88
2022-08-03T05:25:09.475Z,50.05
2022-08-03T05:27:47.678Z,49.45
2022-08-03T05:30:30.360Z,49.05
2022-08-03T05:33:03.716Z,48.86
2022-08-03T05:35:56.830Z,48.67
2022-08-03T05:38:28.155Z,49.36
2022-08-03T05:41:22.649Z,49.96
2022-08-03T05:43:46.130Z,48.59
2022-08-03T05:46:14.503Z,47.51
2022-08-03T05:48:42.798Z,47.25
2022-08-03T05:51:12.279Z,46.56
2022-08-03T05:53:42.331Z,45.53
2022-08-03T05:56:14.353Z,45.25
2022-08-03T05:58:43.603Z,46.30
2022-08-03T06:01:14.793Z,48.33
2022-08-03T06:03:42.839Z,48.38
2022-08-03T06:06:11.523Z,46.75
2022-08-03T06:08:41.642Z,44.43
2022-08-03T06:11:09.847Z,43.00
2022-08-03T06:13:39.478Z,42.29
2022-08-03T06:16:07.632Z,41.73
2022-08-03T06:18:35.662Z,42.31
2022-08-03T06:21:14.422Z,40.23
2022-08-03T06:23:54.661Z,39.08
2022-08-03T06:26:31.487Z,37.50
2022-08-03T06:28:59.820Z,36.82
2022-08-03T06:31:33.831Z,35.66
2022-08-03T06:34:33.027Z,34.92
2022-08-03T06:36:58.557Z,35.31
2022-08-03T06:39:30.962Z,34.29
2022-08-03T06:41:59.103Z,33.70
2022-08-03T06:44:27.169Z,33.91
2022-08-03T06:46:55.252Z,34.18
2022-08-03T06:49:24.758Z,36.03
2022-08-03T06:52:03.899Z,36.54
2022-08-03T06:54:36.786Z,37.00
2022-08-03T06:57:05.564Z,37.83
2022-08-03T07:00:06.199Z,38.61
2022-08-03T07:02:21.776Z,40.14
2022-08-03T07:04:52.092Z,39.94
2022-08-03T07:07:20.735Z,36.79
2022-08-03T07:09:57.194Z,35.08
2022-08-03T07:12:27.417Z,34.32
2022-08-03T07:15:00.356Z,32.03
2022-08-03T07:17:30.363Z,33.52
2022-08-03T07:19:58.155Z,33.31
2022-08-03T07:22:26.095Z,35.58
2022-08-03T07:24:55.331Z,37.12
2022-08-03T07:27:23.669Z,35.22
2022-08-03T07:29:52.300Z,35.84
2022-08-03T07:32:20.614Z,36.96
2022-08-03T07:34:48.813Z,37.17
2022-08-03T07:37:17.124Z,34.54
2022-08-03T07:39:45.397Z,31.46
2022-08-03T07:42:15.283Z,31.17
2022-08-03T07:44:43.928Z,30.41
2022-08-03T07:47:22.530Z,28.01
2022-08-03T07:49:51.187Z,30.41
2022-08-03T07:52:36.866Z,29.14
2022-08-03T07:55:06.548Z,26.66
2022-08-03T07:57:36.463Z,25.84
2022-08-03T08:00:06.489Z,24.93
2022-08-03T08:02:40.522Z,23.46
2022-08-03T08:05:10.758Z,23.44
2022-08-03T08:07:39.985Z,22.98
2022-08-03T08:10:10.234Z,22.80
2022-08-03T08:12:41.208Z,22.02
2022-08-03T08:15:10.514Z,21.25
2022-08-03T08:17:47.369Z,20.12
2022-08-03T08:20:22.452Z,19.79
2022-08-03T08:22:58.754Z,20.22
2022-08-03T08:25:30.083Z,21.91
2022-08-03T08:28:25.304Z,23.04
2022-08-03T08:30:50.903Z,22.08
2022-08-03T08:33:22.433Z,22.30
2022-08-03T08:35:54.164Z,23.21
2022-08-03T08:38:22.398Z,23.40
2022-08-03T08:40:50.375Z,22.68
2022-08-03T08:43:20.773Z,20.63
2022-08-03T08:45:51.166Z,19.83
2022-08-03T08:48:24.016Z,18.26
2022-08-03T08:50:54.343Z,17.45
2022-08-03T08:53:27.254Z,16.82
2022-08-03T08:55:59.755Z,16.30
2022-08-03T08:58:37.993Z,17.06
2022-08-03T09:01:07.590Z,17.35
2022-08-03T09:03:35.876Z,17.72
2022-08-03T09:06:04.733Z,18.50
2022-08-03T09:08:34.027Z,18.44
2022-08-03T09:11:01.826Z,17.81
2022-08-03T09:13:31.734Z,18.29
2022-08-03T09:16:15.250Z,18.33
2022-08-03T09:18:44.126Z,20.00
2022-08-03T09:21:36.034Z,19.56
2022-08-03T09:24:16.391Z,19.86
2022-08-03T09:26:53.650Z,21.21
2022-08-03T09:29:23.814Z,21.42
2022-08-03T09:32:02.596Z,21.25
2022-08-03T09:34:31.482Z,20.91
2022-08-03T09:36:59.737Z,20.58
2022-08-03T09:39:41.078Z,22.19
2022-08-03T09:42:14.958Z,21.76
2022-08-03T09:44:46.948Z,21.98
2022-08-03T09:47:17.385Z,21.53
2022-08-03T09:49:59.379Z,21.40
2022-08-03T09:52:49.752Z,21.83
2022-08-03T09:56:33.495Z,20.50
2022-08-03T09:58:11.932Z,19.70
2022-08-03T10:00:58.429Z,19.14
2022-08-03T10:03:27.787Z,19.33
2022-08-03T10:05:59.798Z,18.13
2022-08-03T10:08:28.799Z,19.12
2022-08-03T10:10:58.701Z,19.54
2022-08-03T10:13:27.150Z,20.30
2022-08-03T10:16:23.346Z,21.07
2022-08-03T10:18:44.290Z,20.71
2022-08-03T10:21:17.653Z,20.85
2022-08-03T10:23:46.536Z,20.73
2022-08-03T10:26:20.438Z,18.99
2022-08-03T10:28:51.664Z,16.82
2022-08-03T10:31:23.650Z,15.11
2022-08-03T10:33:53.587Z,14.63
2022-08-03T10:36:24.843Z,14.38
2022-08-03T10:38:54.101Z,13.67
2022-08-03T10:41:23.238Z,12.75
2022-08-03T10:43:54.219Z,12.25
2022-08-03T10:46:23.738Z,13.02
2022-08-03T10:48:54.015Z,13.29
2022-08-03T10:51:22.898Z,12.25
2022-08-03T10:53:54.639Z,11.89
2022-08-03T10:56:58.549Z,12.17
2022-08-03T11:00:00.672Z,12.69
2022-08-03T11:03:06.584Z,13.42
2022-08-03T11:05:37.646Z,14.66
2022-08-03T11:08:36.175Z,20.30
2022-08-03T11:11:30.718Z,24.71
2022-08-03T11:14:00.635Z,26.64
2022-08-03T11:16:29.065Z,26.88
2022-08-03T11:19:00.337Z,26.03
2022-08-03T11:21:59.665Z,25.55
2022-08-03T11:24:58.834Z,24.16
2022-08-03T11:27:29.607Z,25.17
2022-08-03T11:29:59.643Z,23.81
2022-08-03T11:32:54.167Z,20.47
2022-08-03T11:35:25.947Z,17.30
2022-08-03T11:38:24.701Z,14.41
2022-08-03T11:40:54.564Z,12.87
2022-08-03T11:43:47.249Z,11.39
2022-08-03T11:46:28.221Z,11.54
2022-08-03T11:49:09.832Z,10.08
2022-08-03T11:51:41.151Z,9.62
2022-08-03T11:54:09.361Z,8.98
2022-08-03T11:56:48.415Z,9.52
2022-08-03T11:59:21.856Z,10.79
2022-08-03T12:01:50.853Z,11.62
2022-08-03T12:04:19.830Z,11.09
2022-08-03T12:07:01.258Z,12.01
2022-08-03T12:09:29.836Z,12.34
2022-08-03T12:12:00.294Z,16.76
2022-08-03T12:14:49.817Z,15.13
2022-08-03T12:17:20.985Z,12.62
2022-08-03T12:19:49.148Z,13.81
2022-08-03T12:22:32.674Z,11.62
2022-08-03T12:25:00.820Z,10.91
2022-08-03T12:27:29.888Z,13.68
2022-08-03T12:29:59.925Z,11.15
2022-08-03T12:32:31.518Z,10.15
2022-08-03T12:35:01.631Z,8.70
2022-08-03T12:37:32.440Z,8.43
2022-08-03T12:40:10.249Z,8.26
2022-08-03T12:42:40.628Z,7.65
2022-08-03T12:45:24.965Z,8.00
2022-08-03T12:47:54.737Z,7.44
2022-08-03T12:50:27.902Z,7.45
2022-08-03T12:52:59.808Z,8.54
2022-08-03T12:55:56.556Z,8.04
2022-08-03T12:58:33.640Z,7.82
2022-08-03T13:01:05.216Z,9.01
2022-08-03T13:03:43.206Z,9.43
2022-08-03T13:06:15.686Z,8.99
2022-08-03T13:08:48.098Z,10.68
2022-08-03T13:11:57.932Z,11.52
2022-08-03T13:14:20.098Z,13.92
2022-08-03T13:16:49.255Z,14.05
2022-08-03T13:19:17.308Z,19.04
2022-08-03T13:21:53.495Z,20.77
2022-08-03T13:24:34.876Z,16.98
2022-08-03T13:28:01.092Z,14.68
2022-08-03T13:29:55.655Z,17.97
2022-08-03T13:32:24.720Z,13.49
2022-08-03T13:34:52.745Z,11.18
2022-08-03T13:37:22.460Z,10.59
2022-08-03T13:39:59.868Z,9.54
2022-08-03T13:42:29.614Z,9.77
2022-08-03T13:44:57.849Z,10.16
2022-08-03T13:47:26.106Z,10.06
2022-08-03T13:49:59.815Z,12.44
2022-08-03T13:52:28.724Z,15.82
2022-08-03T13:54:58.523Z,17.62
2022-08-03T13:58:02.399Z,17.14
2022-08-03T14:00:17.218Z,15.15
2022-08-03T14:03:01.890Z,11.45
2022-08-03T14:05:32.825Z,12.41
2022-08-03T14:08:04.624Z,13.14
2022-08-03T14:10:34.754Z,13.81
2022-08-03T14:13:03.020Z,15.31
2022-08-03T14:15:31.220Z,15.36
2022-08-03T14:17:59.865Z,15.96
2022-08-03T14:20:37.876Z,14.00
2022-08-03T14:23:08.889Z,16.55
2022-08-03T14:25:43.654Z,14.76
2022-08-03T14:28:22.804Z,17.61
2022-08-03T14:30:51.185Z,13.12
2022-08-03T14:33:19.785Z,13.37
2022-08-03T14:35:47.930Z,11.76
2022-08-03T14:38:15.925Z,10.14
2022-08-03T14:40:46.062Z,9.41
2022-08-03T14:43:14.475Z,12.04
2022-08-03T14:45:43.027Z,12.92
2022-08-03T14:50:31.856Z,18.39
2022-08-03T14:51:00.874Z,15.07
2022-08-03T14:53:30.428Z,11.92
2022-08-03T14:55:59.742Z,12.35
2022-08-03T14:58:28.403Z,13.31
2022-08-03T15:00:57.015Z,15.36
2022-08-03T15:03:26.369Z,14.33
2022-08-03T15:05:57.499Z,13.23
2022-08-03T15:08:27.355Z,11.77
2022-08-03T15:10:55.815Z,13.51
2022-08-03T15:13:25.667Z,14.60
2022-08-03T15:15:54.356Z,13.81
2022-08-03T15:18:23.057Z,13.59
2022-08-03T15:20:51.443Z,12.23
2022-08-03T15:23:20.179Z,11.44
2022-08-03T15:26:32.314Z,10.30
2022-08-03T15:28:38.608Z,13.46
2022-08-03T15:31:07.515Z,16.19
2022-08-03T15:33:35.674Z,15.45
2022-08-03T15:36:05.574Z,13.74
2022-08-03T15:38:33.706Z,14.33
2022-08-03T15:41:01.719Z,12.94
2022-08-03T15:43:29.963Z,12.17
2022-08-03T15:46:28.251Z,11.11
2022-08-03T15:48:47.707Z,12.19
2022-08-03T15:51:16.088Z,12.54
2022-08-03T15:53:44.610Z,11.80
2022-08-03T15:56:18.152Z,11.79
2022-08-03T15:59:03.539Z,11.62
2022-08-03T16:01:36.521Z,12.40
2022-08-03T16:04:05.018Z,13.79
2022-08-03T16:06:35.032Z,14.26
2022-08-03T16:09:24.325Z,12.96
2022-08-03T16:11:55.352Z,12.39
2022-08-03T16:14:32.425Z,14.34
2022-08-03T16:17:08.137Z,14.20
2022-08-03T16:19:35.951Z,16.85
2022-08-03T16:22:06.564Z,16.24
2022-08-03T16:24:35.299Z,14.92
2022-08-03T16:27:06.139Z,13.75
2022-08-03T16:29:43.953Z,12.85
2022-08-03T16:32:13.403Z,12.43
2022-08-03T16:34:41.828Z,11.65
2022-08-03T16:37:36.551Z,11.39
2022-08-03T16:39:59.178Z,11.06
2022-08-03T16:42:28.188Z,12.03
2022-08-03T16:44:56.202Z,12.75
2022-08-03T16:47:25.668Z,13.03
2022-08-03T16:49:56.413Z,12.96
2022-08-03T16:52:25.389Z,12.28
2022-08-03T16:54:55.294Z,11.65
2022-08-03T16:57:55.787Z,11.28
2022-08-03T17:00:32.865Z,11.99
2022-08-03T17:03:16.405Z,15.97
2022-08-03T17:05:49.574Z,14.69
2022-08-03T17:08:26.857Z,18.16
2022-08-03T17:10:57.132Z,18.72
2022-08-03T17:13:38.733Z,18.76
2022-08-03T17:16:12.243Z,20.50
2022-08-03T17:18:53.752Z,20.89
2022-08-03T17:21:26.897Z,20.55
2022-08-03T17:24:12.348Z,20.01
2022-08-03T17:26:44.798Z,19.32
2022-08-03T17:29:15.582Z,19.36
2022-08-03T17:31:48.674Z,18.26
2022-08-03T17:34:19.833Z,17.20
2022-08-03T17:37:06.054Z,17.59
2022-08-03T17:39:57.747Z,18.70
2022-08-03T17:42:30.829Z,17.58
2022-08-03T17:45:08.984Z,17.58
2022-08-03T17:47:44.333Z,17.06
2022-08-03T17:50:25.788Z,17.61
2022-08-03T17:53:07.390Z,17.91
2022-08-03T17:55:55.940Z,19.07
2022-08-03T17:58:40.472Z,20.24
2022-08-03T18:02:06.150Z,20.08
2022-08-03T18:04:30.036Z,19.63
2022-08-03T18:07:11.545Z,19.50
2022-08-03T18:10:04.807Z,20.24
2022-08-03T18:12:45.274Z,20.72
2022-08-03T18:15:21.401Z,20.76
2022-08-03T18:18:02.785Z,21.11
2022-08-03T18:20:41.247Z,20.45
2022-08-03T18:23:24.755Z,20.57
2022-08-03T18:26:04.688Z,20.88
2022-08-03T18:28:35.939Z,20.97
2022-08-03T18:31:05.931Z,21.70
2022-08-03T18:36:30.237Z,22.63
2022-08-03T18:39:01.657Z,23.10
2022-08-03T18:41:32.994Z,23.77
2022-08-03T18:44:06.812Z,23.92
2022-08-03T18:46:48.838Z,24.67
2022-08-03T18:49:30.309Z,24.71
2022-08-03T18:52:05.020Z,25.51
2022-08-03T18:55:02.790Z,25.95
2022-08-03T18:57:43.147Z,26.24
2022-08-03T19:00:15.650Z,26.51
2022-08-03T19:02:50.396Z,27.12
2022-08-03T19:05:21.598Z,27.63
2022-08-03T19:08:01.074Z,27.89
2022-08-03T19:10:37.646Z,29.27
2022-08-03T19:13:14.454Z,29.00
2022-08-03T19:18:38.779Z,30.47
2022-08-03T19:21:12.715Z,31.43
2022-08-03T19:23:46.819Z,31.19
2022-08-03T19:26:30.371Z,31.82
2022-08-03T19:29:00.725Z,32.51
2022-08-03T19:31:31.112Z,32.63
2022-08-03T19:34:04.516Z,32.61
2022-08-03T19:36:40.581Z,33.30
2022-08-03T19:39:12.962Z,33.85
2022-08-03T19:41:47.288Z,34.74
2022-08-03T19:44:24.453Z,35.50
2022-08-03T19:46:55.211Z,36.08
2022-08-03T19:50:06.230Z,36.21
2022-08-03T19:52:16.887Z,37.23
2022-08-03T19:54:54.648Z,37.35
2022-08-03T19:57:27.274Z,37.65
2022-08-03T19:59:56.530Z,38.36
2022-08-03T20:02:26.873Z,38.48
2022-08-03T20:04:56.758Z,38.69
2022-08-03T20:07:26.044Z,38.27
2022-08-03T20:09:56.662Z,39.35
2022-08-03T20:12:29.007Z,40.25
2022-08-03T20:14:59.455Z,39.85
2022-08-03T20:17:54.598Z,40.04
2022-08-03T20:20:23.467Z,40.75
2022-08-03T20:22:57.727Z,40.37
2022-08-03T20:25:37.668Z,41.22
2022-08-03T20:28:14.963Z,41.72
2022-08-03T20:30:47.335Z,42.24
2022-08-03T20:33:18.294Z,43.60
2022-08-03T20:35:49.773Z,44.55
2022-08-03T20:38:19.809Z,44.11
2022-08-03T20:40:56.368Z,44.32
2022-08-03T20:43:28.923Z,45.41
2022-08-03T20:46:00.810Z,45.78
2022-08-03T20:48:48.580Z,44.76
2022-08-03T20:51:20.202Z,44.37
2022-08-03T20:54:28.559Z,45.38
2022-08-03T20:56:58.080Z,45.40
2022-08-03T20:59:38.478Z,45.50
2022-08-03T21:02:19.679Z,45.18
2022-08-03T21:04:57.511Z,45.32
2022-08-03T21:07:45.664Z,45.26
2022-08-03T21:10:17.950Z,45.79
2022-08-03T21:12:52.887Z,46.98
2022-08-03T21:13:04.565Z,22.32
2022-08-03T21:13:11.242Z,29.40
2022-08-03T21:16:02.466Z,47.17
2022-08-03T21:18:18.645Z,47.28
2022-08-03T21:20:48.304Z,47.64
2022-08-03T21:23:39.886Z,47.37
2022-08-03T21:26:11.773Z,46.94
2022-08-03T21:28:40.307Z,46.91
2022-08-03T21:31:11.023Z,47.50
2022-08-03T21:33:39.395Z,47.25
2022-08-03T21:36:09.490Z,47.51
2022-08-03T21:38:40.630Z,47.36
2022-08-03T21:41:12.135Z,47.27
2022-08-03T21:43:40.452Z,47.60
2022-08-03T21:46:13.182Z,47.82
2022-08-03T21:48:42.443Z,47.88
2022-08-03T21:51:13.040Z,47.81
2022-08-03T21:54:03.578Z,47.82
2022-08-03T21:56:38.073Z,47.93
2022-08-03T21:59:07.960Z,47.96
2022-08-03T22:01:43.200Z,48.00
2022-08-03T22:04:50.627Z,48.53
2022-08-03T22:07:01.059Z,48.60
2022-08-03T22:09:30.189Z,49.30
2022-08-03T22:11:58.617Z,49.56
2022-08-03T22:14:27.088Z,49.93
2022-08-03T22:16:57.064Z,49.83
2022-08-03T22:19:28.741Z,50.07
2022-08-03T22:21:57.581Z,49.75
2022-08-03T22:24:30.267Z,49.71
2022-08-03T22:27:18.374Z,49.69
2022-08-03T22:29:46.349Z,50.26
2022-08-03T22:32:16.204Z,50.39
2022-08-03T22:34:47.541Z,49.87
2022-08-03T22:37:17.801Z,49.56
2022-08-03T22:39:46.738Z,48.69
2022-08-03T22:42:15.250Z,48.98
2022-08-03T22:44:43.609Z,49.10
2022-08-03T22:47:12.038Z,49.68
2022-08-03T22:49:42.784Z,49.98
2022-08-03T22:52:12.161Z,49.96
2022-08-03T22:54:41.345Z,50.26
2022-08-03T22:57:10.083Z,50.18
2022-08-03T22:59:42.034Z,50.70
2022-08-03T23:02:20.253Z,51.27
2022-08-03T23:04:53.248Z,52.18
2022-08-03T23:07:23.949Z,52.54
2022-08-03T23:09:53.021Z,52.70
2022-08-03T23:12:21.545Z,52.55
2022-08-03T23:14:54.270Z,52.44
2022-08-03T23:17:24.942Z,52.45
2022-08-03T23:19:56.141Z,52.23
2022-08-03T23:22:30.266Z,52.19
2022-08-03T23:25:01.506Z,51.90
2022-08-03T23:27:31.864Z,52.00
2022-08-03T23:30:00.601Z,52.19
2022-08-03T23:32:30.665Z,52.14
2022-08-03T23:35:19.818Z,51.75
2022-08-03T23:38:21.604Z,52.03
2022-08-03T23:40:37.989Z,52.90
2022-08-03T23:43:06.854Z,53.33
2022-08-03T23:45:36.262Z,53.77
2022-08-03T23:48:04.378Z,54.14
2022-08-03T23:50:42.137Z,55.29
2022-08-03T23:53:18.408Z,55.42
2022-08-03T23:56:01.688Z,56.00
2022-08-03T23:58:42.009Z,57.21
